Pos M Pos F Pos Num Name Club Cat Time hh:mm:ss
1 1 1 Steve Bateson East Hull Harriers & A.c. M 00:46:49
2 2 3 Phil Taylor Bridlington Road Runners M 00:47:42
3 3 117 David Ricketts Kingston Upon Hull AC M 00:48:36
4 4 42 Matthew Hayes East Hull Harriers & A.c. M35 00:48:42
5 5 43 James Pearson Beverley A C M 00:48:58
6 6 428 Nick Hellewell Bridlington Road Runners M 00:50:41
7 7 32 John Trelfa Scarborough Athletic Club M45 00:51:46
8 8 423 Nigel Sissons East Hull Harriers & A.c. M40 00:52:09
9 9 105 Stephen Peacock Beverley A C M45 00:52:34
10 10 100 Keith Joules East Hull Harriers & A.c. M45 00:53:00
11 11 23 Kevin Langan York Knavesmire Harriers M45 00:53:02
12 12 132 Vito Verrecchia Withernsea Harriers M40 00:53:09
13 13 119 Mark Dalton Beverley A C M45 00:53:51
14 14 111 John Hackleton Kingstone M 00:54:07
15 15 198 Stuart Buchan City of Hull AC M50 00:54:12
16 16 40 James Morris Dewsbury M35 00:54:28
17 17 427 Eddie Rex East Hull Harriers & A.c. M 00:54:30
18 18 24 Mark Williamson Hornsea Harriers M40 00:54:33
19 1 276 Sarah Cumber Halifax F35 00:54:38
20 19 106 Mike Vinegrad East Hull Harriers & A.c. M40 00:54:56
21 20 120 Jonathan Oxley Beverley A C M40 00:54:56
22 21 71 Oliver Johnston Beverley A C M 00:55:02
23 22 133 Tim Savage Unattached M40 00:55:03
24 23 188 Andrew Johnson Beverley A C M40 00:55:08
25 24 57 Stephen Schofield Dewsbury M50 00:55:29
26 25 130 Sean McDermott York Knavesmire Harriers M50 00:55:49
27 26 28 Chris Allen Scarborough Athletic Club M40 00:56:07
28 27 49 Mark Harney York Knavesmire Harriers M45 00:56:11
29 28 110 Georffey Cumber Halifax M60 00:56:16
30 29 102 David Bell White City (Hull) RRC M 00:56:30
31 30 139 Steve Coates East Hull Harriers & A.c. M35 00:56:51
32 31 96 Dave Shipley Scarborough Athletic Club M50 00:56:59
33 32 67 Tony Burgin White City (Hull) RRC M40 00:57:16
34 33 17 David Darton York Knavesmire Harriers M50 00:57:50
35 34 22 Steve Firth Penistone M55 00:57:52
36 35 90 Shaun Fores East Hull Harriers & A.c. M50 00:57:55
37 36 422 Andrew Watson East Hull Harriers & A.c. M45 00:57:55
38 37 129 Alan Kendra Pocklington Runners M45 00:58:15
39 38 171 Michael Craig White City (Hull) RRC M45 00:58:23
40 39 66 Ian Ward Tadcaster Harriers M50 00:58:27
41 40 13 Paul Thompson NY Police M45 00:58:46
42 41 20 Simon Drew York Knavesmire Harriers M35 00:58:46
43 42 190 Robert Duxbury Tadcaster Harriers M50 00:59:00
44 43 97 Peter Watkinson Beverley A C M55 00:59:01
45 44 29 Adrian Rooks Unattached M45 00:59:07
46 2 265 Emma Brown Bridlington Road Runners F35 00:59:34
47 45 169 Peter O'Callaghan Scarborough Athletic Club M40 00:59:53
48 46 142 Nicholas Kennett Pontefract AC M40 00:59:54
49 47 158 Jordan Arnott Beverley A C M 00:59:55
50 48 199 Martin Smith Unattached M40 01:00:00
51 49 16 Colin Lea York Knavesmire Harriers M40 01:00:07
52 50 156 Daniel Hind Unattached M 01:00:13
53 51 64 Paul Tatterton Pocklington Runners M 01:00:24
54 52 53 Alan Smith White City (Hull) RRC M40 01:00:34
55 53 163 Paul Andrews East Hull Harriers & A.c. M45 01:00:37
56 54 75 David Hill Haltemprice RRC M40 01:00:42
57 55 166 Daren Smith Hull Barracuda Tri M40 01:00:56
58 3 286 Hannah Lane Unattached F 01:01:04
59 56 189 Philip Copley Hull Barracuda Tri M45 01:01:17
60 57 175 Neil Hambley Unattached M40 01:01:18
61 58 183 Clive Read Pocklington Runners M55 01:01:18
62 4 212 Alison Thornton Pocklington Runners F45 01:01:34
63 59 4 Andrew Tomlinson Unattached M 01:01:56
64 60 141 Daniel Lownes Unattached M 01:02:09
65 61 197 Paul MacMillan Selby Striders M40 01:02:16
66 62 157 Cory Arnott Beverley A C M 01:02:18
67 63 38 Patrick Langan York Knavesmire Harriers M40 01:02:46
68 64 62 Mick Howard Spenborough M45 01:02:51
69 65 161 Darren Wilson Unattached M40 01:02:58
70 66 87 Richard Sykes Unattached M 01:03:03
71 5 201 Amanda Dean West Hull Ladies F50 01:03:05
72 6 255 Karon Colley Bridlington Road Runners F45 01:03:16
73 67 41 Denis Heam Scarborough Athletic Club M60 01:03:18
74 68 112 Philip Neal Scunthorpe & District M55 01:03:23
75 69 165 Andrew Marson Unattached M45 01:03:32
76 70 85 Graham Naylor White City (Hull) RRC M55 01:03:35
77 71 11 Alaister MacLeod York Knavesmire Harriers M45 01:03:38
78 7 224 Jenny Chambers Hallamshire F55 01:03:49
79 8 247 Angela Bulingham Unattached F 01:03:52
80 72 25 Roger Lewis  Scunthorpe & District M60 01:04:04
81 73 125 David  Foster Bridlington Road Runners M50 01:04:10
82 9 259 Jill Dowson Pocklington Runners F45 01:04:15
83 10 288 Joanne Abbott Loftus and Whitby AC F35 01:04:15
84 74 60 Steven Taylor Unattached M 01:04:19
85 75 46 Neal Madden Beverley A C M50 01:04:23
86 76 116 Jaysson Sawyer Hull Achilles AC M 01:04:29
87 77 99 Tim Simpson Beverley A C M35 01:04:44
88 78 185 David Herfield Unattached M50 01:04:50
89 11 258 Sara Stead Pocklington Runners F35 01:04:54
90 12 269 April Gunning Bridlington Road Runners F40 01:05:08
91 79 51 Darren Atkinson Unattached M 01:05:14
92 80 30 Gary Nichols Cambridge Tri M55 01:05:16
93 81 194 Roy Robinson Bridlington Road Runners M60 01:05:16
94 82 113 Richard Walker York Knavesmire Harriers M40 01:05:19
95 83 426 Mathew Sawyer Unattached M40 01:05:22
96 84 137 Janek Popiolek Pudsey Pacers M50 01:05:31
97 85 107 Robert Eyre Bridlington Road Runners M65 01:05:36
98 86 123 Rob Reid Beverley A C M40 01:05:44
99 87 121 Howard Davies Beverley A C M45 01:05:48
100 88 181 Phil Raddall York Knavesmire Harriers M40 01:05:49
101 89 109 Lucas Meagor Beverley A C M 01:06:03
102 90 52 Tony Minikin Keighley Craven M65 01:06:11
103 91 196 Jonathan Williams  Hornsea Harriers M 01:06:21
104 92 138 Anthony Shipley Unattached M50 01:06:25
105 93 155 Neil Sergeant Beverley A C M55 01:06:28
106 94 168 Thomas Gillon Scarborough Athletic Club M50 01:06:32
107 95 126 Chris Charles Unattached M 01:06:41
108 96 104 Harold Dobson York Knavesmire Harriers M60 01:06:45
109 97 195 Ross Gunning Bridlington Road Runners M40 01:06:48
110 98 98 Kelvin Westerman East Hull Harriers & A.c. M55 01:06:58
111 99 193 Peter Anderson Unattached M45 01:07:07
112 100 14 Jody Horth Unattached M 01:07:08
113 13 254 Judy Allison Bridlington Road Runners F45 01:07:11
114 101 186 Mark Swinden Tadcaster Harriers M50 01:07:16
115 102 122 ? ? Unattached M 01:07:19
116 103 91 Peter Marson Unattached M40 01:07:20
117 104 89 Tom Copeland Unattached M 01:07:30
118 14 218 Patsy Fenelon Goole F60 01:07:31
119 105 83 Stuart Ambler York Knavesmire Harriers M 01:07:35
120 15 240 Alexandra Cambell Hull Springhead Harriers F35 01:07:37
121 106 200 John Savage East Hull Harriers & A.c. M45 01:07:39
122 16 249 Carole Brattan Withernsea Harriers F40 01:07:42
123 107 18 Terry Hirst East Hull Harriers & A.c. M55 01:07:43
124 108 7 John Middleton York Knavesmire Harriers M50 01:07:51
125 109 81 Richard Iveson Unattached M35 01:07:52
126 110 50 Richard Riby Unattached M 01:07:54
127 17 251 Caroline Wood White City (Hull) RRC F45 01:07:55
128 111 170 Mark Willis White City (Hull) RRC M 01:08:01
129 112 54 Denys Fell Unattached M55 01:08:02
130 113 55 Christopher Fell Unattached M 01:08:03
131 114 178 Ian Sugden Unattached M45 01:08:10
132 115 93 Colin Watson Dewsbury M65 01:08:19
133 116 180 Steve Chapman Unattached M40 01:08:20
134 117 162 Mark Smith Unattached M40 01:08:25
135 118 187 Jeremy Swinden Tadcaster Harriers M50 01:08:31
136 119 177 Richard Jordan Unattached M60 01:08:34
137 120 82 John Harrison Unattached M50 01:08:39
138 121 39 Simon Beecroft Hornsea Harriers M45 01:08:40
139 122 101 Andy Tate Beverley A C M45 01:08:47
140 18 275 Jayne Dale Beverley A C F50 01:08:48
141 19 293 Adele Shipley Pocklington Runners F40 01:08:48
142 20 294 Amy Taylor White City (Hull) RRC F 01:08:56
143 123 159 Paul Brittain Unattached M40 01:09:17
144 124 104 Harold Dobson York Knavesmire Harriers M60 01:09:30
145 125 176 Paul Sheridan Pocklington Runners M40 01:09:37
146 126 146 Nick Tudor Hornsea Harriers M 01:09:41
147 127 108 Phillip Kynman White City (Hull) RRC M45 01:09:54
148 21 296 Deborah Brant Beverley A C F40 01:09:57
149 22 289 Trish Cutts Pudsey Pacers F50 01:10:00
150 128 58 Jed Holden Beverley A C M55 01:10:08
151 23 215 Tina Wiggleswoth East Hull Harriers & A.c. F40 01:10:14
152 24 205 Maureen Medlar York Knavesmire Harriers F55 01:10:16
153 25 302 Justine Leuty Lauderdale F35 01:10:27
154 129 114 Paul Beckett Unattached M40 01:10:39
155 130 167 Martin Young White City (Hull) RRC M45 01:10:40
156 26 291 Helen Phillips Unattached F 01:10:53
157 131 10 Martin Medlar York Knavesmire Harriers M50 01:10:56
158 132 149 Craig Bridgewood Scarborough Athletic Club M40 01:11:03
159 27 256 Joy Allen York Knavesmire Harriers F45 01:11:07
160 133 131 Donald Abbott Loftus and Whitby AC M45 01:11:10
161 134 173 Dean Hurren East Hull Harriers & A.c. M40 01:11:12
162 135 174 Steven Dawson White City (Hull) RRC M50 01:11:19
163 136 65 James Hogg Unattached M 01:11:27
164 137 128 Guy Gibson Unattached M45 01:11:29
165 28 237 Wendy Hadgraft East Hull Harriers & A.c. F40 01:11:33
166 138 424 Alf Hopper Unattached M60 01:11:35
167 29 298 Sally Kingscott Scarborough Athletic Club F40 01:11:40
168 139 148 Mark Raven York Knavesmire Harriers M50 01:11:43
169 140 127 Dave Playforth Bridlington Road Runners M45 01:11:48
170 30 274 Diana Coleman Beverley A C F45 01:11:50
171 141 160 Keith Warner Unattached M45 01:11:59
172 31 282 Natalie Cook Unattached F40 01:12:12
173 142 12 Steve Richmond East Hull Harriers & A.c. M50 01:12:22
174 143 33 Gary Moss York Knavesmire Harriers M40 01:12:25
175 144 172 Richard Macleod Unattached M50 01:12:46
176 32 283 Susan Douglas Abingdon Amblers AC F50 01:12:57
177 33 290 Sarah Douglas York Knavesmire Harriers F 01:12:57
178 145 44 David Prescott Unattached M40 01:13:13
179 146 80 Lindon Washby East Hull Harriers & A.c. M35 01:13:16
180 34 246 Amanda Ritchie Beverley A C F45 01:13:17
181 35 241 Gill Barker York Knavesmire Harriers F50 01:13:20
182 36 235 Margaret Boyd Hornsea Harriers F45 01:13:36
183 37 277 Donna Hackleton Kingston Upon Hull AC F 01:13:39
184 38 295 Dorothy Winder City of Hull AC F55 01:13:42
185 39 304 Lisa Hinchcliffe Unattached F40 01:13:51
186 40 287 Wendy Smith Unattached F40 01:13:59
187 147 135 Reid Haddow Northern Vets M60 01:14:16
188 41 308 Sarah Hargreaves Pocklington Runners F45 01:14:25
189 42 233 Sam Shepherdson Scarborough Athletic Club F35 01:14:30
190 43 299 Jayne Earle East Hull Harriers & A.c. F40 01:14:44
191 148 192 Charlie Palmer  Unattached M45 01:14:55
192 44 292 Ann Long Unattached F60 01:15:09
193 149 147 John Long East Hull Harriers & A.c. M50 01:15:10
194 45 203 Sophie Eckford Unattached F40 01:15:25
195 46 220 Margaret Brown York Knavesmire Harriers F50 01:15:33
196 47 244 Susan Tennant Tadcaster Harriers F50 01:15:51
197 150 69 Steven Hadley Beverley A C M45 01:15:56
198 151 36 Steven Thirsk East Hull Harriers & A.c. M50 01:16:00
199 152 153 Paul Garrity Scarborough Athletic Club M55 01:16:16
200 48 213 Liz Matthews York Knavesmire Harriers F45 01:16:22
201 49 253 Michelle Rollinson Bridlington Road Runners F40 01:16:23
202 50 260 Pam Atkins Beverley A C F60 01:16:27
203 51 307 Jill Newbold Unattached F40 01:16:33
204 153 56 Peter Hadgraft East Hull Harriers & A.c. M50 01:16:37
205 52 303 Vicky Bone Hornsea Harriers F 01:16:40
206 154 31 Ryan Hepworth Unattached M 01:16:41
207 53 238 Kim Schofield Dewsbury F45 01:16:47
208 155 425 Simon Abbotts Unattached M 01:16:51
209 156 68 Barry Sinar Ackworth RRC M65 01:16:53
210 54 268 Gill Waite York Knavesmire Harriers F55 01:17:15
211 55 222 Katie Oliver York Knavesmire Harriers F 01:17:22
212 56 306 Bev Compton Unattached F40 01:17:25
213 57 236 Janet Morley Hornsea Harriers F50 01:17:27
214 157 94 Graeme Adams York Knavesmire Harriers M60 01:18:04
215 58 207 Shirley Oglesby East Hull Harriers & A.c. F55 01:18:27
216 59 221 Lisa Davis East Hull Harriers & A.c. F35 01:19:01
217 158 9 Kieron Morris Unattached M 01:19:30
218 159 76 Andrew Clarke White City (Hull) RRC M45 01:19:32
219 160 179 Adrian Ingham Unattached M40 01:19:44
220 161 84 Robert Macfarlane Unattached M60 01:19:51
221 162 77 Chris Chadwick White City (Hull) RRC M40 01:19:54
222 60 271 Kay Farrow Beverley A C F50 01:20:10
223 61 232 Denise Ombler East Hull Harriers & A.c. F55 01:20:30
224 62 217 Clair Williamson Unattached F40 01:20:39
225 163 140 Stephen Ridge Unattached M 01:20:54
226 63 297 Joan  Heron York Knavesmire Harriers F55 01:21:30
227 164 78 Peter McNally Beverley A C M60 01:21:32
228 64 227 Laura Caley West Hull Ladies F 01:21:32
229 65 257 Karen Scott West Hull Ladies F35 01:21:34
230 66 301 Anna Marshall West Hull Ladies F 01:21:50
231 67 284 Deb Tate Unattached F40 01:21:54
232 68 223 Vivianne Fraser York Knavesmire Harriers F45 01:21:56
233 165 26 Malcolm Fawcett York Knavesmire Harriers M65 01:22:05
234 69 266 Linda Moss York Knavesmire Harriers F45 01:22:12
235 70 206 Irene Welbourne York Knavesmire Harriers F50 01:22:13
236 71 252 Karen Towner White City (Hull) RRC F50 01:22:14
237 166 88 Morris Gregory York Knavesmire Harriers M55 01:22:28
238 72 279 Julie Beckett Unattached F40 01:22:47
239 73 305 Bridget Leitch Hull Barracuda Tri F40 01:22:59
240 167 143 Tony Blissenden White City (Hull) RRC M60 01:23:01
241 74 210 Michelle Atkins York Knavesmire Harriers F40 01:23:22
242 168 70 John Broadley Beverley A C M60 01:23:43
243 75 72 Paula Smith Unattached F 01:24:05
244 76 250 Helen Leach York Knavesmire Harriers F40 01:24:33
245 169 86 Stephen Howard Unattached M45 01:25:09
246 170 182 Colin Outram Unattached M50 01:25:34
247 171 191 Michael Wolverson Unattached M45 01:25:34
248 172 6 Ken Upstall Unattached M50 01:25:36
249 77 300 Karen Nicholson Unattached F45 01:25:46
250 78 228 Sharon Langan York Knavesmire Harriers F40 01:26:08
251 79 211 Jean Wright York Knavesmire Harriers F60 01:26:22
252 80 273 Yendis Westerman West Hull Ladies F55 01:26:59
253 81 270 Sue Giles East Hull Harriers & A.c. F50 01:27:46
254 173 144 Miles Cawthorn Kirkstall Harriers M40 01:28:06
255 82 208 Linda Biff York Knavesmire Harriers F55 01:28:46
256 83 225 Anna Nichols Unattached F50 01:29:58
257 174 19 Andy Young York Knavesmire Harriers M60 01:30:10
258 84 245 Steph Palmerone Unattached F45 01:30:22
259 175 118 Tony Barenskie Unattached M45 01:31:03
260 85 219 Julie Dimaline Hull Springhead Harriers F45 01:31:56
261 86 239 Helen Heath Unattached F40 01:32:01
262 87 281 Karen Cutsforth West Hull Ladies F50 01:32:29
263 88 234 Louise King Unattached F45 01:34:07
264 89 214 Mavis Young York Knavesmire Harriers F60 01:39:07
265 90 202 Emma Caley Unattached F35 01:40:24
266 91 204 Kim Middleton York Knavesmire Harriers F45 01:42:46
267 92 272 Jane Lewis-Stride Unattached F35 01:49:16
268 93 209 Caroline Thompson Unattached F 01:50:23
269 176 74 Michael Robinson Unattached M 01:59:06
270 94 280 Natalie Westwell Unattached F 02:02:11
271 177 150 Ian  Westwell Unattached M 02:02:11